createdAt,value
2023-05-10T00:01:22.936Z,13.92
2023-05-10T00:03:50.627Z,13.87
2023-05-10T00:06:18.328Z,13.92
2023-05-10T00:08:46.904Z,13.84
2023-05-10T00:11:14.513Z,13.86
2023-05-10T00:13:42.211Z,13.85
2023-05-10T00:16:11.149Z,13.88
2023-05-10T00:18:38.761Z,13.95
2023-05-10T00:21:06.847Z,13.91
2023-05-10T00:23:34.395Z,13.85
2023-05-10T00:26:01.920Z,13.92
2023-05-10T00:28:29.537Z,13.92
2023-05-10T00:30:57.849Z,13.82
2023-05-10T00:33:26.860Z,13.83
2023-05-10T00:35:54.447Z,13.81
2023-05-10T00:38:22.040Z,13.83
2023-05-10T00:40:49.735Z,13.90
2023-05-10T00:43:25.239Z,13.93
2023-05-10T00:45:53.023Z,13.83
2023-05-10T00:48:21.109Z,13.82
2023-05-10T00:50:50.323Z,13.84
2023-05-10T00:53:18.774Z,13.87
2023-05-10T00:55:46.620Z,13.73
2023-05-10T00:58:14.895Z,13.76
2023-05-10T01:00:44.370Z,13.86
2023-05-10T01:03:12.410Z,13.88
2023-05-10T01:05:40.169Z,13.85
2023-05-10T01:08:09.546Z,13.88
2023-05-10T01:10:37.191Z,13.84
2023-05-10T01:13:05.032Z,13.83
2023-05-10T01:15:33.785Z,13.87
2023-05-10T01:18:02.386Z,13.89
2023-05-10T01:20:37.592Z,13.89
2023-05-10T01:23:33.509Z,13.93
2023-05-10T01:26:26.300Z,13.96
2023-05-10T01:29:19.596Z,13.91
2023-05-10T01:32:16.877Z,13.91
2023-05-10T01:34:53.534Z,13.91
2023-05-10T01:37:27.162Z,13.92
2023-05-10T01:40:03.303Z,13.80
2023-05-10T01:42:36.848Z,13.82
2023-05-10T01:45:13.195Z,13.77
2023-05-10T01:47:45.350Z,13.74
2023-05-10T01:50:23.178Z,13.71
2023-05-10T01:52:55.464Z,13.72
2023-05-10T01:55:26.667Z,13.71
2023-05-10T01:58:00.924Z,13.70
2023-05-10T02:00:30.707Z,13.65
2023-05-10T02:03:02.273Z,13.67
2023-05-10T02:05:31.698Z,13.68
2023-05-10T02:08:01.675Z,13.63
2023-05-10T02:10:30.490Z,13.70
2023-05-10T02:13:01.301Z,13.70
2023-05-10T02:15:30.432Z,13.70
2023-05-10T02:18:01.772Z,13.69
2023-05-10T02:20:30.362Z,13.69
2023-05-10T02:22:59.473Z,13.72
2023-05-10T02:25:28.908Z,13.76
2023-05-10T02:27:58.794Z,13.75
2023-05-10T02:30:27.206Z,13.76
2023-05-10T02:41:23.395Z,13.76
2023-05-10T02:43:52.657Z,13.81
2023-05-10T02:46:20.471Z,13.84
2023-05-10T02:48:48.104Z,13.88
2023-05-10T02:51:18.795Z,13.82
2023-05-10T02:53:48.848Z,13.86
2023-05-10T02:56:26.956Z,13.81
2023-05-10T02:58:54.693Z,13.84
2023-05-10T03:01:22.393Z,13.86
2023-05-10T03:03:50.303Z,13.77
2023-05-10T03:06:18.195Z,13.82
2023-05-10T03:08:46.847Z,13.87
2023-05-10T03:11:32.410Z,13.88
2023-05-10T03:14:15.936Z,13.92
2023-05-10T03:16:48.737Z,13.93
2023-05-10T03:19:24.167Z,13.90
2023-05-10T03:21:54.046Z,13.92
2023-05-10T03:24:24.010Z,13.92
2023-05-10T03:26:57.567Z,13.84
2023-05-10T03:29:27.577Z,13.86
2023-05-10T03:31:55.638Z,13.87
2023-05-10T03:34:25.942Z,13.81
2023-05-10T03:36:54.016Z,13.80
2023-05-10T03:39:22.236Z,13.77
2023-05-10T03:41:55.961Z,13.70
2023-05-10T03:44:23.587Z,13.65
2023-05-10T03:46:51.304Z,13.68
2023-05-10T03:49:18.935Z,13.67
2023-05-10T03:51:46.596Z,13.61
2023-05-10T03:54:14.177Z,13.63
2023-05-10T03:56:42.522Z,13.64
2023-05-10T03:59:11.519Z,13.63
2023-05-10T04:01:39.095Z,13.68
2023-05-10T04:04:06.947Z,13.70
2023-05-10T04:06:34.776Z,13.68
2023-05-10T04:09:05.269Z,13.68
2023-05-10T04:11:32.893Z,13.65
2023-05-10T04:14:00.412Z,13.71
2023-05-10T04:16:29.413Z,13.70
2023-05-10T04:18:57.100Z,13.68
2023-05-10T04:21:24.626Z,13.70
2023-05-10T04:23:52.433Z,13.70
2023-05-10T04:26:20.049Z,13.70
2023-05-10T04:28:47.657Z,13.74
2023-05-10T04:31:15.624Z,13.75
2023-05-10T04:33:44.547Z,13.81
2023-05-10T04:36:12.530Z,13.88
2023-05-10T04:38:40.189Z,13.86
2023-05-10T04:41:08.483Z,13.87
2023-05-10T04:43:37.039Z,13.84
2023-05-10T04:46:04.871Z,13.95
2023-05-10T04:48:32.695Z,13.97
2023-05-10T04:51:01.748Z,14.04
2023-05-10T04:53:29.365Z,14.05
2023-05-10T04:55:56.947Z,14.10
2023-05-10T04:58:24.550Z,14.22
2023-05-10T05:00:52.166Z,14.24
2023-05-10T05:03:19.797Z,14.26
2023-05-10T05:05:47.376Z,14.32
2023-05-10T05:08:16.535Z,14.38
2023-05-10T05:10:44.106Z,14.40
2023-05-10T05:13:11.678Z,14.47
2023-05-10T05:15:39.267Z,14.42
2023-05-10T05:18:06.895Z,14.44
2023-05-10T05:20:34.802Z,14.44
2023-05-10T05:23:02.368Z,14.57
2023-05-10T05:25:31.287Z,14.69
2023-05-10T05:27:58.886Z,14.73
2023-05-10T05:30:26.512Z,14.77
2023-05-10T05:32:54.147Z,14.79
2023-05-10T05:35:21.848Z,14.66
2023-05-10T05:37:49.358Z,14.59
2023-05-10T05:40:17.042Z,14.47
2023-05-10T05:42:46.015Z,14.59
2023-05-10T05:45:14.890Z,14.63
2023-05-10T05:47:42.680Z,14.65
2023-05-10T05:50:11.437Z,14.55
2023-05-10T05:52:39.010Z,14.68
2023-05-10T05:55:07.031Z,14.57
2023-05-10T05:57:35.265Z,14.59
2023-05-10T06:00:04.899Z,14.51
2023-05-10T06:02:40.315Z,14.46
2023-05-10T06:05:09.141Z,14.50
2023-05-10T06:07:36.750Z,14.67
2023-05-10T06:10:04.788Z,14.75
2023-05-10T06:12:32.536Z,14.85
2023-05-10T06:15:00.172Z,14.71
2023-05-10T06:17:29.721Z,14.79
2023-05-10T06:19:57.507Z,14.81
2023-05-10T06:22:25.105Z,14.58
2023-05-10T06:24:52.695Z,14.68
2023-05-10T06:27:20.247Z,14.69
2023-05-10T06:29:49.197Z,14.69
2023-05-10T06:32:18.091Z,14.78
2023-05-10T06:34:47.300Z,14.88
2023-05-10T06:37:14.924Z,14.82
2023-05-10T06:39:42.599Z,14.85
2023-05-10T06:42:10.334Z,14.82
2023-05-10T06:44:37.958Z,14.96
2023-05-10T06:47:05.626Z,14.99
2023-05-10T06:49:33.167Z,15.04
2023-05-10T06:52:02.025Z,15.04
2023-05-10T06:54:29.620Z,15.07
2023-05-10T06:56:57.194Z,15.29
2023-05-10T06:59:25.046Z,15.36
2023-05-10T07:01:52.795Z,15.43
2023-05-10T07:04:20.389Z,15.22
2023-05-10T07:06:48.211Z,15.32
2023-05-10T07:09:17.091Z,15.23
2023-05-10T07:11:44.656Z,15.16
2023-05-10T07:14:12.199Z,15.28
2023-05-10T07:16:39.806Z,15.28
2023-05-10T07:19:07.414Z,15.34
2023-05-10T07:21:36.177Z,15.44
2023-05-10T07:24:03.804Z,15.31
2023-05-10T07:26:32.775Z,15.17
2023-05-10T07:29:00.356Z,15.14
2023-05-10T07:31:28.016Z,15.00
2023-05-10T07:33:55.570Z,14.97
2023-05-10T07:36:23.167Z,15.04
2023-05-10T07:38:51.405Z,15.14
2023-05-10T07:41:19.073Z,14.90
2023-05-10T07:43:47.986Z,15.09
2023-05-10T07:46:15.620Z,14.95
2023-05-10T07:48:43.651Z,14.91
2023-05-10T07:51:11.712Z,14.96
2023-05-10T07:53:39.459Z,14.97
2023-05-10T07:56:23.169Z,15.08
2023-05-10T07:58:52.286Z,15.22
2023-05-10T08:01:20.045Z,15.35
2023-05-10T08:03:47.861Z,15.39
2023-05-10T08:06:16.381Z,15.50
2023-05-10T08:08:43.960Z,15.57
2023-05-10T08:11:11.478Z,15.58
2023-05-10T08:13:39.088Z,15.70
2023-05-10T08:16:08.246Z,15.44
2023-05-10T08:18:35.924Z,15.62
2023-05-10T08:21:03.517Z,15.73
2023-05-10T08:23:31.153Z,15.88
2023-05-10T08:25:58.770Z,15.87
2023-05-10T08:28:26.293Z,16.01
2023-05-10T08:30:53.926Z,15.89
2023-05-10T08:33:22.973Z,16.04
2023-05-10T08:35:50.514Z,15.78
2023-05-10T08:38:18.140Z,15.87
2023-05-10T08:40:46.591Z,15.50
2023-05-10T08:43:16.054Z,15.68
2023-05-10T08:45:46.256Z,15.49
2023-05-10T08:48:13.837Z,15.68
2023-05-10T08:50:44.073Z,15.93
2023-05-10T08:53:14.033Z,15.88
2023-05-10T08:55:43.618Z,16.15
2023-05-10T08:58:11.585Z,16.11
2023-05-10T09:00:39.217Z,16.25
2023-05-10T09:03:08.084Z,16.30
2023-05-10T09:05:35.712Z,16.66
2023-05-10T09:08:04.872Z,16.48
2023-05-10T09:10:32.944Z,16.24
2023-05-10T09:13:01.117Z,16.20
2023-05-10T09:15:28.664Z,16.49
2023-05-10T09:17:56.621Z,16.53
2023-05-10T09:20:24.282Z,16.65
2023-05-10T09:22:51.991Z,16.48
2023-05-10T09:25:21.600Z,16.80
2023-05-10T09:27:49.716Z,16.97
2023-05-10T09:30:18.864Z,16.81
2023-05-10T09:32:48.067Z,16.69
2023-05-10T09:35:18.492Z,16.81
2023-05-10T09:37:48.745Z,16.50
2023-05-10T09:40:18.632Z,16.30
2023-05-10T09:42:55.673Z,15.85
2023-05-10T09:45:23.500Z,15.49
2023-05-10T09:47:51.255Z,15.28
2023-05-10T09:50:18.945Z,15.02
2023-05-10T09:52:51.966Z,15.01
2023-05-10T09:55:20.778Z,15.09
2023-05-10T09:57:49.629Z,15.01
2023-05-10T10:00:21.422Z,15.00
2023-05-10T10:02:55.823Z,15.03
2023-05-10T10:05:30.152Z,15.01
2023-05-10T10:07:59.294Z,15.24
2023-05-10T10:10:27.212Z,15.77
2023-05-10T10:12:55.272Z,16.05
2023-05-10T10:15:25.347Z,16.32
2023-05-10T10:17:54.666Z,16.64
2023-05-10T10:20:24.933Z,16.83
2023-05-10T10:22:52.622Z,16.65
2023-05-10T10:25:22.807Z,16.38
2023-05-10T10:28:01.485Z,16.28
2023-05-10T10:30:37.287Z,16.13
2023-05-10T10:33:32.744Z,16.35
2023-05-10T10:36:03.558Z,16.12
2023-05-10T10:38:39.777Z,15.99
2023-05-10T10:41:12.004Z,16.21
2023-05-10T10:43:39.591Z,16.24
2023-05-10T10:46:15.920Z,16.51
2023-05-10T10:48:48.947Z,16.36
2023-05-10T10:51:16.610Z,16.43
2023-05-10T10:53:45.420Z,16.59
2023-05-10T10:56:16.235Z,16.45
2023-05-10T10:58:52.025Z,16.79
2023-05-10T11:01:21.638Z,17.03
2023-05-10T11:04:20.664Z,16.90
2023-05-10T11:06:48.408Z,16.90
2023-05-10T11:09:15.932Z,17.14
2023-05-10T11:11:55.856Z,17.17
2023-05-10T11:14:24.361Z,16.97
2023-05-10T11:16:53.830Z,16.94
2023-05-10T11:19:21.630Z,16.41
2023-05-10T11:21:50.761Z,16.07
2023-05-10T11:24:20.229Z,16.38
2023-05-10T11:26:52.317Z,16.15
2023-05-10T11:29:20.157Z,16.42
2023-05-10T11:31:49.306Z,16.49
2023-05-10T11:34:27.051Z,16.62
2023-05-10T11:36:55.949Z,16.38
2023-05-10T11:39:28.092Z,16.60
2023-05-10T11:41:56.199Z,16.87
2023-05-10T11:44:23.809Z,16.84
2023-05-10T11:46:51.824Z,16.85
2023-05-10T11:49:19.852Z,17.01
2023-05-10T11:51:48.963Z,17.16
2023-05-10T11:54:16.486Z,16.65
2023-05-10T11:56:44.099Z,16.91
2023-05-10T11:59:11.620Z,16.72
2023-05-10T12:01:39.335Z,16.93
2023-05-10T12:04:07.238Z,16.87
2023-05-10T12:06:41.625Z,16.84
2023-05-10T12:09:11.150Z,16.60
2023-05-10T12:11:42.510Z,16.92
2023-05-10T12:14:11.477Z,16.94
2023-05-10T12:16:39.147Z,16.67
2023-05-10T12:19:07.229Z,16.78
2023-05-10T12:21:34.792Z,17.05
2023-05-10T12:24:04.647Z,16.98
2023-05-10T12:26:33.961Z,17.21
2023-05-10T12:29:14.956Z,17.57
2023-05-10T12:31:56.068Z,17.58
2023-05-10T12:34:27.760Z,17.41
2023-05-10T12:36:55.773Z,17.32
2023-05-10T12:39:23.425Z,17.53
2023-05-10T12:41:52.622Z,17.88
2023-05-10T12:44:20.412Z,18.04
2023-05-10T12:46:48.695Z,18.36
2023-05-10T12:49:16.214Z,18.92
2023-05-10T12:51:43.702Z,19.29
2023-05-10T12:54:11.283Z,19.47
2023-05-10T12:56:38.937Z,19.52
2023-05-10T12:59:07.988Z,19.15
2023-05-10T13:01:35.656Z,19.34
2023-05-10T13:04:03.292Z,19.78
2023-05-10T13:06:31.690Z,19.95
2023-05-10T13:08:59.271Z,20.32
2023-05-10T13:11:26.909Z,20.37
2023-05-10T13:13:54.646Z,20.51
2023-05-10T13:16:23.664Z,20.57
2023-05-10T13:18:51.531Z,20.27
2023-05-10T13:21:19.179Z,20.78
2023-05-10T13:23:47.425Z,20.28
2023-05-10T13:26:14.992Z,20.45
2023-05-10T13:28:42.599Z,20.17
2023-05-10T13:31:10.237Z,20.19
2023-05-10T13:33:39.124Z,19.66
2023-05-10T13:36:07.936Z,19.41
2023-05-10T13:38:35.509Z,19.64
2023-05-10T13:41:03.105Z,19.55
2023-05-10T13:43:31.455Z,19.48
2023-05-10T13:45:59.247Z,20.07
2023-05-10T13:48:26.801Z,19.85
2023-05-10T13:50:55.891Z,19.71
2023-05-10T13:53:23.405Z,20.01
2023-05-10T13:55:51.301Z,20.14
2023-05-10T13:58:19.085Z,20.01
2023-05-10T14:00:46.685Z,19.90
2023-05-10T14:03:14.376Z,20.56
2023-05-10T14:05:42.559Z,20.56
2023-05-10T14:08:11.813Z,19.93
2023-05-10T14:10:39.451Z,19.99
2023-05-10T14:13:07.172Z,19.66
2023-05-10T14:15:34.736Z,19.53
2023-05-10T14:18:02.623Z,19.30
2023-05-10T14:20:30.321Z,18.76
2023-05-10T14:22:57.877Z,18.13
2023-05-10T14:25:27.019Z,18.09
2023-05-10T14:27:55.577Z,17.85
2023-05-10T14:30:23.192Z,17.93
2023-05-10T14:32:50.802Z,17.78
2023-05-10T14:35:19.707Z,17.81
2023-05-10T14:37:47.778Z,17.77
2023-05-10T14:40:16.091Z,17.60
2023-05-10T14:42:45.434Z,17.80
2023-05-10T14:45:13.437Z,17.94
2023-05-10T14:47:41.083Z,18.09
2023-05-10T14:50:09.630Z,18.17
2023-05-10T14:52:37.365Z,18.49
2023-05-10T14:55:05.374Z,19.19
2023-05-10T14:57:33.358Z,19.88
2023-05-10T15:00:02.279Z,20.12
2023-05-10T15:02:30.412Z,20.81
2023-05-10T15:04:59.356Z,21.28
2023-05-10T15:07:27.471Z,21.55
2023-05-10T15:09:55.070Z,21.49
2023-05-10T15:12:22.700Z,21.51
2023-05-10T15:14:50.324Z,21.03
2023-05-10T15:17:19.203Z,21.26
2023-05-10T15:19:46.930Z,21.04
2023-05-10T15:22:14.525Z,21.17
2023-05-10T15:24:42.184Z,20.52
2023-05-10T15:27:09.861Z,20.46
2023-05-10T15:29:37.560Z,19.94
2023-05-10T15:32:05.382Z,19.84
2023-05-10T15:34:35.781Z,19.67
2023-05-10T15:37:04.704Z,19.36
2023-05-10T15:39:32.273Z,19.00
2023-05-10T15:41:59.787Z,18.95
2023-05-10T15:44:27.415Z,18.73
2023-05-10T15:46:55.127Z,18.76
2023-05-10T15:49:22.726Z,18.49
2023-05-10T15:51:51.701Z,18.04
2023-05-10T15:54:19.274Z,18.02
2023-05-10T15:56:47.071Z,17.91
2023-05-10T15:59:14.680Z,17.90
2023-05-10T16:01:42.267Z,17.95
2023-05-10T16:04:09.852Z,17.95
2023-05-10T16:06:38.152Z,17.86
2023-05-10T16:09:07.193Z,18.30
2023-05-10T16:11:34.745Z,18.90
2023-05-10T16:14:02.284Z,19.33
2023-05-10T16:16:30.058Z,19.85
2023-05-10T16:18:58.723Z,20.01
2023-05-10T16:21:26.312Z,20.51
2023-05-10T16:23:53.861Z,20.15
2023-05-10T16:26:22.859Z,20.42
2023-05-10T16:28:50.570Z,20.03
2023-05-10T16:31:19.980Z,19.85
2023-05-10T16:33:47.662Z,19.97
2023-05-10T16:36:15.179Z,20.21
2023-05-10T16:38:42.684Z,20.50
2023-05-10T16:41:10.724Z,20.41
2023-05-10T16:43:39.614Z,19.88
2023-05-10T16:46:11.572Z,19.95
2023-05-10T16:48:39.243Z,19.47
2023-05-10T16:51:07.114Z,19.85
2023-05-10T16:53:34.702Z,19.17
2023-05-10T16:56:02.495Z,19.24
2023-05-10T16:58:30.079Z,19.08
2023-05-10T17:00:58.959Z,18.84
2023-05-10T17:03:26.742Z,18.71
2023-05-10T17:05:54.411Z,18.99
2023-05-10T17:08:23.144Z,18.66
2023-05-10T17:10:50.745Z,18.69
2023-05-10T17:13:18.566Z,18.45
2023-05-10T17:15:47.345Z,18.25
2023-05-10T17:18:16.557Z,18.15
2023-05-10T17:20:45.374Z,18.08
2023-05-10T17:23:12.943Z,18.12
2023-05-10T17:25:41.889Z,18.10
2023-05-10T17:28:09.591Z,17.97
2023-05-10T17:30:37.107Z,17.65
2023-05-10T17:33:04.878Z,17.71
2023-05-10T17:35:34.008Z,17.89
2023-05-10T17:38:01.880Z,17.63
2023-05-10T17:40:29.665Z,17.63
2023-05-10T17:42:57.233Z,17.56
2023-05-10T17:45:24.795Z,17.66
2023-05-10T17:47:52.445Z,17.57
2023-05-10T17:50:20.154Z,17.59
2023-05-10T17:52:49.143Z,17.43
2023-05-10T17:55:17.255Z,17.25
2023-05-10T17:57:45.137Z,17.31
2023-05-10T18:00:14.091Z,17.15
2023-05-10T18:02:42.405Z,17.19
2023-05-10T18:05:10.917Z,17.17
2023-05-10T18:07:38.736Z,17.17
2023-05-10T18:10:08.946Z,17.16
2023-05-10T18:12:36.479Z,17.38
2023-05-10T18:15:04.471Z,17.79
2023-05-10T18:17:33.393Z,18.17
2023-05-10T18:20:01.025Z,18.12
2023-05-10T18:22:28.685Z,17.99
2023-05-10T18:24:56.350Z,17.86
2023-05-10T18:27:25.308Z,17.72
2023-05-10T18:29:52.901Z,17.44
2023-05-10T18:32:20.499Z,17.21
2023-05-10T18:34:48.038Z,17.00
2023-05-10T18:37:15.878Z,16.78
2023-05-10T18:39:43.635Z,16.59
2023-05-10T18:42:11.236Z,16.47
2023-05-10T18:44:40.148Z,16.29
2023-05-10T18:47:08.382Z,16.17
2023-05-10T18:49:35.946Z,16.03
2023-05-10T18:52:03.595Z,15.91
2023-05-10T18:54:31.179Z,15.77
2023-05-10T18:56:58.944Z,15.51
2023-05-10T18:59:27.709Z,15.34
2023-05-10T19:01:57.450Z,15.33
2023-05-10T19:04:25.423Z,15.30
2023-05-10T19:06:53.025Z,15.20
2023-05-10T19:09:21.033Z,15.06
2023-05-10T19:11:48.626Z,14.97
2023-05-10T19:14:16.284Z,14.85
2023-05-10T19:16:44.030Z,14.75
2023-05-10T19:19:14.410Z,14.61
2023-05-10T19:21:41.973Z,14.54
2023-05-10T19:24:10.785Z,14.43
2023-05-10T19:26:38.820Z,14.32
2023-05-10T19:29:06.383Z,14.28
2023-05-10T19:31:34.424Z,14.22
2023-05-10T19:34:02.040Z,14.09
2023-05-10T19:36:30.987Z,14.09
2023-05-10T19:38:58.479Z,13.95
2023-05-10T19:41:26.156Z,13.88
2023-05-10T19:43:53.838Z,13.81
2023-05-10T19:46:21.523Z,13.73
2023-05-10T19:48:50.910Z,13.68
2023-05-10T19:51:18.692Z,13.68
2023-05-10T19:53:47.670Z,13.62
2023-05-10T19:56:16.439Z,13.58
2023-05-10T19:58:43.958Z,13.53
2023-05-10T20:01:11.562Z,13.55
2023-05-10T20:03:39.140Z,13.50
2023-05-10T20:06:06.797Z,13.53
2023-05-10T20:08:34.450Z,13.56
2023-05-10T20:11:03.874Z,13.56
2023-05-10T20:13:31.638Z,13.54
2023-05-10T20:16:00.036Z,13.53
2023-05-10T20:18:27.843Z,13.53
2023-05-10T20:20:56.076Z,13.45
2023-05-10T20:23:23.806Z,13.41
2023-05-10T20:25:51.607Z,13.33
2023-05-10T20:28:23.280Z,13.27
2023-05-10T20:30:53.225Z,13.26
2023-05-10T20:33:20.946Z,13.22
2023-05-10T20:35:49.561Z,13.19
2023-05-10T20:38:18.054Z,13.18
2023-05-10T20:40:46.432Z,13.13
2023-05-10T20:43:14.028Z,13.08
2023-05-10T20:45:43.028Z,13.06
2023-05-10T20:48:10.679Z,13.05
2023-05-10T20:50:38.193Z,13.00
2023-05-10T20:53:06.021Z,12.97
2023-05-10T20:55:33.605Z,12.92
2023-05-10T20:58:03.438Z,12.90
2023-05-10T21:00:32.416Z,12.87
2023-05-10T21:03:01.314Z,12.87
2023-05-10T21:05:29.069Z,12.85
2023-05-10T21:07:56.778Z,12.87
2023-05-10T21:10:25.497Z,12.83
2023-05-10T21:12:53.034Z,12.78
2023-05-10T21:15:22.488Z,12.75
2023-05-10T21:17:50.077Z,12.70
2023-05-10T21:20:19.204Z,12.68
2023-05-10T21:22:46.903Z,12.66
2023-05-10T21:25:14.758Z,12.63
2023-05-10T21:27:42.345Z,12.58
2023-05-10T21:30:10.945Z,12.53
2023-05-10T21:32:38.549Z,12.47
2023-05-10T21:35:07.268Z,12.41
2023-05-10T21:37:36.126Z,12.32
2023-05-10T21:40:04.629Z,12.25
2023-05-10T21:42:32.503Z,12.25
2023-05-10T21:45:00.057Z,12.17
2023-05-10T21:47:27.972Z,12.16
2023-05-10T21:49:55.532Z,12.16
2023-05-10T21:52:23.150Z,12.16
2023-05-10T21:54:51.994Z,12.14
2023-05-10T21:57:21.337Z,12.10
2023-05-10T21:59:48.995Z,12.10
2023-05-10T22:02:16.806Z,12.06
2023-05-10T22:04:44.397Z,12.01
2023-05-10T22:07:11.973Z,12.05
2023-05-10T22:09:39.543Z,12.02
2023-05-10T22:12:08.517Z,12.00
2023-05-10T22:14:36.167Z,11.99
2023-05-10T22:17:03.726Z,12.00
2023-05-10T22:19:31.284Z,11.97
2023-05-10T22:21:58.836Z,12.00
2023-05-10T22:24:26.421Z,11.97
2023-05-10T22:26:55.085Z,12.02
2023-05-10T22:29:24.151Z,11.98
2023-05-10T22:31:51.851Z,11.93
2023-05-10T22:34:19.409Z,11.90
2023-05-10T22:36:46.965Z,11.88
2023-05-10T22:39:14.474Z,11.85
2023-05-10T22:41:42.022Z,11.86
2023-05-10T22:44:09.892Z,11.88
2023-05-10T22:46:39.388Z,11.87
2023-05-10T22:49:07.207Z,11.86
2023-05-10T22:51:35.407Z,11.82
2023-05-10T22:54:03.052Z,11.78
2023-05-10T22:56:31.585Z,11.76
2023-05-10T22:58:59.167Z,11.76
2023-05-10T23:01:26.843Z,11.76
2023-05-10T23:03:56.874Z,11.73
2023-05-10T23:06:24.396Z,11.70
2023-05-10T23:08:51.981Z,11.65
2023-05-10T23:11:19.533Z,11.63
2023-05-10T23:13:47.084Z,11.59
2023-05-10T23:16:14.779Z,11.60
2023-05-10T23:18:42.392Z,11.54
2023-05-10T23:21:11.321Z,11.55
2023-05-10T23:23:38.903Z,11.48
2023-05-10T23:26:06.541Z,11.44
2023-05-10T23:28:34.178Z,11.42
2023-05-10T23:31:01.827Z,11.37
2023-05-10T23:33:29.418Z,11.33
2023-05-10T23:35:56.940Z,11.33
2023-05-10T23:38:26.073Z,11.31
2023-05-10T23:40:54.356Z,11.29
2023-05-10T23:43:21.934Z,11.26
2023-05-10T23:45:59.367Z,11.23
2023-05-10T23:48:27.109Z,11.17
2023-05-10T23:50:54.658Z,11.18
2023-05-10T23:53:22.177Z,11.19
2023-05-10T23:55:51.131Z,11.17
2023-05-10T23:58:18.685Z,11.15
